createdAt,value
2023-04-24T00:00:59.830Z,2.97
2023-04-24T00:03:26.992Z,4.15
2023-04-24T00:05:53.521Z,3.22
2023-04-24T00:08:19.890Z,4.97
2023-04-24T00:10:47.284Z,4.90
2023-04-24T00:13:13.649Z,5.15
2023-04-24T00:15:40.090Z,4.20
2023-04-24T00:18:06.528Z,3.05
2023-04-24T00:20:34.295Z,3.13
2023-04-24T00:23:00.650Z,3.88
2023-04-24T00:25:27.019Z,4.70
2023-04-24T00:27:53.375Z,3.80
2023-04-24T00:30:19.823Z,4.13
2023-04-24T00:32:46.247Z,3.53
2023-04-24T00:35:12.603Z,3.17
2023-04-24T00:37:38.911Z,2.92
2023-04-24T00:40:06.328Z,3.08
2023-04-24T00:42:32.833Z,2.75
2023-04-24T00:45:00.112Z,3.35
2023-04-24T00:47:26.622Z,2.70
2023-04-24T00:49:52.947Z,3.00
2023-04-24T00:52:19.246Z,2.88
2023-04-24T00:54:46.316Z,2.72
2023-04-24T00:57:13.749Z,3.00
2023-04-24T00:59:42.044Z,3.10
2023-04-24T01:02:11.908Z,2.70
2023-04-24T01:04:38.932Z,3.55
2023-04-24T01:07:11.383Z,3.50
2023-04-24T01:09:44.843Z,4.18
2023-04-24T01:12:11.332Z,3.78
2023-04-24T01:14:38.239Z,2.78
2023-04-24T01:17:04.612Z,3.45
2023-04-24T01:19:31.230Z,4.50
2023-04-24T01:22:00.132Z,4.10
2023-04-24T01:24:26.437Z,5.05
2023-04-24T01:26:52.834Z,4.60
2023-04-24T01:29:19.790Z,2.97
2023-04-24T01:31:46.623Z,4.72
2023-04-24T01:34:13.649Z,5.00
2023-04-24T01:36:40.656Z,4.78
2023-04-24T01:39:07.238Z,5.40
2023-04-24T01:41:34.220Z,5.55
2023-04-24T01:44:00.716Z,5.65
2023-04-24T01:46:27.278Z,5.30
2023-04-24T01:48:54.016Z,6.20
2023-04-24T01:51:20.586Z,3.72
2023-04-24T01:53:46.980Z,5.13
2023-04-24T01:56:13.311Z,6.45
2023-04-24T01:58:39.804Z,6.03
2023-04-24T02:01:07.635Z,4.57
2023-04-24T02:03:34.267Z,7.15
2023-04-24T02:06:00.772Z,5.45
2023-04-24T02:08:27.130Z,7.78
2023-04-24T02:10:53.445Z,7.15
2023-04-24T02:13:19.736Z,6.10
2023-04-24T02:15:46.074Z,5.78
2023-04-24T02:18:13.660Z,7.65
2023-04-24T02:20:39.966Z,6.10
2023-04-24T02:23:06.287Z,7.90
2023-04-24T02:25:32.642Z,7.68
2023-04-24T02:27:58.945Z,5.38
2023-04-24T02:30:25.527Z,8.50
2023-04-24T02:32:52.470Z,6.65
2023-04-24T02:35:18.931Z,6.35
2023-04-24T02:37:45.586Z,6.30
2023-04-24T02:40:12.184Z,6.10
2023-04-24T02:42:38.524Z,6.85
2023-04-24T02:45:05.951Z,6.47
2023-04-24T02:47:32.302Z,5.25
2023-04-24T02:49:58.657Z,6.70
2023-04-24T02:52:25.007Z,6.95
2023-04-24T02:54:51.293Z,7.43
2023-04-24T02:57:17.626Z,7.80
2023-04-24T02:59:44.285Z,8.05
2023-04-24T03:02:10.784Z,8.02
2023-04-24T03:04:37.660Z,9.43
2023-04-24T03:07:05.417Z,9.57
2023-04-24T03:09:31.813Z,6.72
2023-04-24T03:11:59.183Z,7.10
2023-04-24T03:14:25.705Z,8.85
2023-04-24T03:16:52.011Z,9.10
2023-04-24T03:19:18.352Z,8.20
2023-04-24T03:21:45.007Z,8.95
2023-04-24T03:24:11.385Z,9.25
2023-04-24T03:26:37.672Z,7.68
2023-04-24T03:29:04.012Z,8.88
2023-04-24T03:31:30.503Z,8.90
2023-04-24T03:33:56.838Z,8.45
2023-04-24T03:36:23.225Z,12.32
2023-04-24T03:38:49.575Z,13.05
2023-04-24T03:41:15.876Z,9.70
2023-04-24T03:43:42.175Z,8.20
2023-04-24T03:46:10.225Z,10.70
2023-04-24T03:48:36.639Z,10.85
2023-04-24T03:51:03.498Z,11.48
2023-04-24T03:53:29.861Z,10.88
2023-04-24T03:55:56.453Z,10.35
2023-04-24T03:58:22.760Z,11.35
2023-04-24T04:00:49.080Z,10.25
2023-04-24T04:03:15.667Z,10.82
2023-04-24T04:05:42.184Z,10.18
2023-04-24T04:08:08.497Z,7.47
2023-04-24T04:10:34.810Z,9.05
2023-04-24T04:13:01.289Z,10.35
2023-04-24T04:15:27.599Z,11.38
2023-04-24T04:17:53.934Z,11.00
2023-04-24T04:20:20.304Z,11.30
2023-04-24T04:22:46.609Z,10.43
2023-04-24T04:25:14.441Z,11.13
2023-04-24T04:27:42.362Z,9.23
2023-04-24T04:30:09.427Z,8.43
2023-04-24T04:32:35.839Z,5.00
2023-04-24T04:35:05.578Z,10.70
2023-04-24T04:37:32.756Z,10.10
2023-04-24T04:39:59.084Z,10.75
2023-04-24T04:42:26.423Z,10.13
2023-04-24T04:44:52.729Z,10.25
2023-04-24T04:47:22.594Z,10.07
2023-04-24T04:49:49.050Z,10.45
2023-04-24T04:52:15.630Z,9.82
2023-04-24T04:54:41.910Z,10.57
2023-04-24T04:57:08.917Z,10.27
2023-04-24T04:59:35.966Z,10.13
2023-04-24T05:02:02.389Z,10.38
2023-04-24T05:04:28.850Z,9.70
2023-04-24T05:06:55.342Z,9.30
2023-04-24T05:09:21.686Z,7.88
2023-04-24T05:11:48.002Z,10.63
2023-04-24T05:14:14.373Z,6.18
2023-04-24T05:16:41.456Z,8.45
2023-04-24T05:19:07.869Z,9.45
2023-04-24T05:21:34.204Z,8.93
2023-04-24T05:24:00.564Z,7.13
2023-04-24T05:26:26.952Z,5.18
2023-04-24T05:28:53.296Z,6.10
2023-04-24T05:31:19.662Z,9.50
2023-04-24T05:33:45.988Z,6.68
2023-04-24T05:36:12.375Z,7.93
2023-04-24T05:38:38.678Z,4.30
2023-04-24T05:41:05.081Z,7.10
2023-04-24T05:43:31.621Z,6.75
2023-04-24T05:45:58.045Z,7.35
2023-04-24T05:48:24.562Z,6.43
2023-04-24T05:50:51.610Z,4.90
2023-04-24T05:53:17.935Z,6.38
2023-04-24T05:55:44.561Z,6.68
2023-04-24T05:58:11.183Z,5.75
2023-04-24T06:00:37.698Z,4.30
2023-04-24T06:03:04.918Z,5.35
2023-04-24T06:05:31.864Z,6.80
2023-04-24T06:07:58.314Z,5.10
2023-04-24T06:10:24.650Z,5.10
2023-04-24T06:12:50.930Z,5.20
2023-04-24T06:15:17.438Z,3.38
2023-04-24T06:17:43.799Z,5.05
2023-04-24T06:20:11.865Z,5.03
2023-04-24T06:22:38.284Z,4.45
2023-04-24T06:25:05.401Z,4.65
2023-04-24T06:27:31.714Z,3.80
2023-04-24T06:29:58.249Z,3.55
2023-04-24T06:32:25.385Z,4.32
2023-04-24T06:34:53.128Z,4.05
2023-04-24T06:37:20.686Z,4.65
2023-04-24T06:39:47.394Z,4.20
2023-04-24T06:42:13.753Z,4.05
2023-04-24T06:44:43.766Z,4.20
2023-04-24T06:47:11.223Z,3.83
2023-04-24T06:49:38.346Z,3.78
2023-04-24T06:52:05.084Z,3.97
2023-04-24T06:54:32.624Z,3.80
2023-04-24T06:57:01.440Z,2.22
2023-04-24T06:59:28.821Z,3.50
2023-04-24T07:01:56.106Z,1.45
2023-04-24T07:04:22.757Z,2.10
2023-04-24T07:06:55.167Z,2.00
2023-04-24T07:09:21.496Z,2.30
2023-04-24T07:11:48.025Z,1.63
2023-04-24T07:14:14.939Z,2.60
2023-04-24T07:16:41.418Z,1.10
2023-04-24T07:19:07.830Z,1.95
2023-04-24T07:21:34.312Z,2.70
2023-04-24T07:24:01.167Z,2.20
2023-04-24T07:26:29.393Z,1.98
2023-04-24T07:28:56.107Z,1.88
2023-04-24T07:31:22.710Z,1.00
2023-04-24T07:33:49.702Z,1.85
2023-04-24T07:36:19.690Z,2.22
2023-04-24T07:38:46.943Z,1.77
2023-04-24T07:41:14.565Z,1.98
2023-04-24T07:43:41.206Z,1.90
2023-04-24T07:46:09.106Z,1.65
2023-04-24T07:48:35.932Z,1.20
2023-04-24T07:51:02.395Z,1.25
2023-04-24T07:53:28.766Z,1.00
2023-04-24T07:55:56.794Z,1.90
2023-04-24T07:58:23.182Z,1.05
2023-04-24T08:00:49.563Z,0.70
2023-04-24T08:03:19.221Z,0.20
2023-04-24T08:05:45.683Z,0.40
2023-04-24T08:08:12.193Z,0.30
2023-04-24T08:10:38.554Z,0.52
2023-04-24T08:13:04.890Z,0.60
2023-04-24T08:15:31.242Z,0.60
2023-04-24T08:17:59.240Z,0.17
2023-04-24T08:20:25.695Z,1.20
2023-04-24T08:22:52.102Z,1.00
2023-04-24T08:25:19.997Z,1.10
2023-04-24T08:27:46.325Z,2.00
2023-04-24T08:30:13.021Z,1.73
2023-04-24T08:32:39.388Z,2.67
2023-04-24T08:35:05.979Z,2.95
2023-04-24T08:37:32.311Z,2.00
2023-04-24T08:39:58.697Z,2.25
2023-04-24T08:42:25.998Z,3.60
2023-04-24T08:44:52.351Z,3.53
2023-04-24T08:47:21.189Z,3.47
2023-04-24T08:49:48.983Z,3.58
2023-04-24T08:52:16.607Z,4.25
2023-04-24T08:54:46.287Z,2.95
2023-04-24T08:57:14.264Z,2.05
2023-04-24T08:59:40.789Z,3.80
2023-04-24T09:02:11.423Z,3.25
2023-04-24T09:04:38.830Z,2.72
2023-04-24T09:07:07.506Z,2.17
2023-04-24T09:09:34.127Z,3.20
2023-04-24T09:12:01.120Z,1.77
2023-04-24T09:14:28.896Z,3.22
2023-04-24T09:16:55.224Z,3.95
2023-04-24T09:19:22.665Z,4.47
2023-04-24T09:21:49.268Z,3.65
2023-04-24T09:24:23.293Z,3.50
2023-04-24T09:26:56.770Z,2.70
2023-04-24T09:29:23.081Z,3.17
2023-04-24T09:31:49.483Z,2.28
2023-04-24T09:34:21.656Z,2.83
2023-04-24T09:36:48.128Z,1.92
2023-04-24T09:39:20.689Z,2.13
2023-04-24T09:41:52.554Z,2.40
2023-04-24T09:44:23.323Z,1.33
2023-04-24T09:47:00.792Z,2.70
2023-04-24T09:49:30.209Z,1.88
2023-04-24T09:52:07.808Z,2.25
2023-04-24T09:54:34.404Z,1.48
2023-04-24T09:57:03.396Z,0.63
2023-04-24T09:59:30.634Z,1.35
2023-04-24T10:01:58.607Z,1.25
2023-04-24T10:04:28.202Z,1.42
2023-04-24T10:06:56.873Z,1.20
2023-04-24T10:09:25.925Z,1.42
2023-04-24T10:11:54.324Z,1.20
2023-04-24T10:14:23.054Z,1.42
2023-04-24T10:16:50.952Z,1.52
2023-04-24T10:19:19.495Z,0.70
2023-04-24T10:21:49.421Z,1.33
2023-04-24T10:24:17.821Z,0.90
2023-04-24T10:26:46.075Z,1.70
2023-04-24T10:29:14.037Z,1.58
2023-04-24T10:31:40.881Z,1.00
2023-04-24T10:34:08.406Z,1.15
2023-04-24T10:36:35.894Z,2.17
2023-04-24T10:39:07.289Z,1.23
2023-04-24T10:41:33.642Z,1.23
2023-04-24T10:44:14.560Z,1.63
2023-04-24T10:46:45.419Z,1.55
2023-04-24T10:49:12.216Z,0.98
2023-04-24T10:51:53.831Z,1.60
2023-04-24T10:54:27.706Z,1.40
2023-04-24T10:57:11.975Z,1.02
2023-04-24T10:59:38.375Z,1.65
2023-04-24T11:02:08.000Z,1.13
2023-04-24T11:04:36.056Z,1.00
2023-04-24T11:07:04.798Z,1.70
2023-04-24T11:09:32.769Z,0.98
2023-04-24T11:12:11.849Z,0.80
2023-04-24T11:14:56.669Z,0.88
2023-04-24T11:17:34.341Z,0.90
2023-04-24T11:20:23.065Z,0.70
2023-04-24T11:22:58.570Z,0.60
2023-04-24T11:25:25.784Z,1.40
2023-04-24T11:28:04.658Z,0.85
2023-04-24T11:30:32.566Z,0.63
2023-04-24T11:33:04.756Z,0.60
2023-04-24T11:35:38.279Z,0.85
2023-04-24T11:40:35.556Z,0.75
2023-04-24T11:43:02.078Z,0.98
2023-04-24T11:45:30.863Z,1.70
2023-04-24T11:47:57.888Z,0.75
2023-04-24T11:50:29.474Z,0.47
2023-04-24T11:52:56.925Z,0.52
2023-04-24T11:55:27.083Z,0.20
2023-04-24T11:57:57.387Z,0.50
2023-04-24T12:00:29.315Z,0.27
2023-04-24T12:06:12.653Z,0.50
2023-04-24T12:08:39.107Z,0.52
2023-04-24T12:11:10.146Z,1.00
2023-04-24T12:13:37.334Z,0.50
2023-04-24T12:16:05.572Z,0.40
2023-04-24T12:18:32.402Z,0.50
2023-04-24T12:21:19.981Z,0.63
2023-04-24T12:23:48.195Z,0.40
2023-04-24T12:26:22.082Z,0.13
2023-04-24T12:28:50.091Z,0.40
2023-04-24T12:31:17.532Z,0.50
2023-04-24T12:33:44.510Z,0.28
2023-04-24T12:36:13.132Z,0.40
2023-04-24T12:38:45.267Z,0.55
2023-04-24T12:41:14.564Z,0.70
2023-04-24T12:43:54.862Z,0.28
2023-04-24T12:46:22.692Z,0.50
2023-04-24T12:48:49.222Z,0.40
2023-04-24T12:51:15.846Z,0.30
2023-04-24T12:53:42.610Z,0.20
2023-04-24T12:56:09.157Z,0.17
2023-04-24T12:58:35.633Z,0.70
2023-04-24T13:01:02.083Z,1.00
2023-04-24T13:03:28.653Z,0.50
2023-04-24T13:05:55.098Z,0.50
2023-04-24T13:08:21.493Z,0.68
2023-04-24T13:10:47.809Z,0.52
2023-04-24T13:13:14.181Z,0.93
2023-04-24T13:15:40.493Z,0.57
2023-04-24T13:18:06.892Z,0.68
2023-04-24T13:20:33.219Z,0.52
2023-04-24T13:22:59.526Z,0.10
2023-04-24T13:25:25.905Z,0.57
2023-04-24T13:27:52.205Z,0.28
2023-04-24T13:30:18.788Z,0.40
2023-04-24T13:32:45.391Z,0.63
2023-04-24T13:35:11.749Z,0.22
2023-04-24T13:37:38.063Z,0.50
2023-04-24T13:40:06.920Z,0.70
2023-04-24T13:42:33.460Z,0.47
2023-04-24T13:45:00.876Z,0.73
2023-04-24T13:47:27.509Z,1.30
2023-04-24T13:49:55.114Z,0.75
2023-04-24T13:52:21.473Z,0.65
2023-04-24T13:54:47.770Z,0.60
2023-04-24T13:57:15.465Z,0.70
2023-04-24T13:59:41.841Z,0.52
2023-04-24T14:02:08.276Z,0.50
2023-04-24T14:04:34.821Z,0.73
2023-04-24T14:07:01.266Z,0.63
2023-04-24T14:09:27.624Z,0.77
2023-04-24T14:11:53.957Z,1.02
2023-04-24T14:14:20.450Z,0.70
2023-04-24T14:16:46.913Z,1.20
2023-04-24T14:19:13.213Z,1.15
2023-04-24T14:21:39.601Z,1.25
2023-04-24T14:24:06.231Z,1.35
2023-04-24T14:26:32.771Z,0.55
2023-04-24T14:29:11.670Z,1.05
2023-04-24T14:31:41.393Z,0.60
2023-04-24T14:34:07.816Z,0.80
2023-04-24T14:36:34.155Z,0.70
2023-04-24T14:39:00.578Z,1.05
2023-04-24T14:41:26.944Z,1.27
2023-04-24T14:43:53.254Z,0.80
2023-04-24T14:46:19.592Z,1.05
2023-04-24T14:48:45.945Z,0.77
2023-04-24T14:51:12.371Z,1.17
2023-04-24T14:53:38.734Z,1.42
2023-04-24T14:56:05.491Z,0.93
2023-04-24T14:58:31.828Z,1.10
2023-04-24T15:00:58.183Z,0.50
2023-04-24T15:03:24.815Z,1.02
2023-04-24T15:05:51.760Z,1.02
2023-04-24T15:08:18.248Z,0.52
2023-04-24T15:10:45.471Z,1.40
2023-04-24T15:13:11.789Z,1.00
2023-04-24T15:15:38.209Z,0.77
2023-04-24T15:18:06.340Z,1.30
2023-04-24T15:20:32.728Z,1.13
2023-04-24T15:23:00.737Z,1.08
2023-04-24T15:25:27.523Z,1.55
2023-04-24T15:27:53.886Z,1.23
2023-04-24T15:30:20.312Z,1.88
2023-04-24T15:32:46.956Z,1.13
2023-04-24T15:35:13.327Z,1.02
2023-04-24T15:37:39.666Z,1.10
2023-04-24T15:40:08.357Z,1.00
2023-04-24T15:42:35.524Z,1.60
2023-04-24T15:45:01.874Z,1.50
2023-04-24T15:47:28.437Z,0.47
2023-04-24T15:49:54.937Z,1.10
2023-04-24T15:52:21.836Z,1.30
2023-04-24T15:54:48.357Z,1.30
2023-04-24T15:57:14.853Z,1.52
2023-04-24T15:59:41.307Z,1.90
2023-04-24T16:02:14.447Z,0.90
2023-04-24T16:04:40.893Z,1.00
2023-04-24T16:07:07.860Z,1.02
2023-04-24T16:09:34.227Z,1.05
2023-04-24T16:12:00.951Z,0.70
2023-04-24T16:14:27.285Z,1.20
2023-04-24T16:16:55.358Z,1.73
2023-04-24T16:19:21.836Z,1.95
2023-04-24T16:21:48.200Z,1.05
2023-04-24T16:24:14.522Z,0.98
2023-04-24T16:26:40.997Z,0.95
2023-04-24T16:29:07.315Z,0.57
2023-04-24T16:31:33.860Z,1.23
2023-04-24T16:34:00.250Z,0.95
2023-04-24T16:36:26.886Z,0.75
2023-04-24T16:38:53.254Z,1.13
2023-04-24T16:41:19.567Z,1.25
2023-04-24T16:43:45.998Z,0.70
2023-04-24T16:46:12.375Z,1.17
2023-04-24T16:48:38.677Z,1.00
2023-04-24T16:51:05.243Z,1.10
2023-04-24T16:53:31.566Z,1.27
2023-04-24T16:55:57.868Z,1.10
2023-04-24T16:58:24.281Z,1.90
2023-04-24T17:00:50.828Z,2.08
2023-04-24T17:03:17.249Z,1.63
2023-04-24T17:05:43.811Z,1.65
2023-04-24T17:08:10.372Z,1.25
2023-04-24T17:10:36.847Z,1.75
2023-04-24T17:13:03.283Z,1.67
2023-04-24T17:15:29.669Z,1.83
2023-04-24T17:17:57.420Z,2.13
2023-04-24T17:20:24.318Z,1.42
2023-04-24T17:22:51.332Z,1.60
2023-04-24T17:25:18.026Z,2.28
2023-04-24T17:27:45.137Z,2.53
2023-04-24T17:30:11.986Z,1.65
2023-04-24T17:32:38.441Z,1.77
2023-04-24T17:35:05.486Z,1.58
2023-04-24T17:37:32.778Z,1.08
2023-04-24T17:39:59.197Z,2.20
2023-04-24T17:42:25.568Z,1.50
2023-04-24T17:44:51.999Z,1.38
2023-04-24T17:47:19.988Z,2.08
2023-04-24T17:49:46.277Z,1.25
2023-04-24T17:52:13.602Z,0.90
2023-04-24T17:54:39.905Z,1.58
2023-04-24T17:57:06.240Z,2.10
2023-04-24T17:59:32.590Z,1.85
2023-04-24T18:01:58.995Z,1.92
2023-04-24T18:04:26.092Z,1.00
2023-04-24T18:06:52.655Z,1.00
2023-04-24T18:09:20.670Z,1.75
2023-04-24T18:11:48.081Z,1.30
2023-04-24T18:14:14.407Z,1.40
2023-04-24T18:16:40.787Z,2.40
2023-04-24T18:19:07.261Z,1.80
2023-04-24T18:21:33.629Z,2.33
2023-04-24T18:24:00.283Z,1.45
2023-04-24T18:26:27.182Z,2.38
2023-04-24T18:28:53.496Z,1.77
2023-04-24T18:31:20.279Z,2.45
2023-04-24T18:33:49.662Z,2.70
2023-04-24T18:36:16.021Z,2.40
2023-04-24T18:38:42.413Z,2.17
2023-04-24T18:41:08.780Z,1.52
2023-04-24T18:43:35.179Z,1.90
2023-04-24T18:46:01.556Z,1.60
2023-04-24T18:48:30.916Z,2.10
2023-04-24T18:50:57.362Z,2.25
2023-04-24T18:53:24.042Z,2.00
2023-04-24T18:55:50.482Z,1.52
2023-04-24T18:58:16.797Z,2.45
2023-04-24T19:00:43.126Z,1.60
2023-04-24T19:03:09.806Z,2.58
2023-04-24T19:05:36.225Z,2.13
2023-04-24T19:08:02.581Z,1.50
2023-04-24T19:10:29.047Z,2.35
2023-04-24T19:12:56.779Z,2.35
2023-04-24T19:15:24.589Z,2.80
2023-04-24T19:17:51.661Z,1.83
2023-04-24T19:20:19.043Z,1.77
2023-04-24T19:22:46.598Z,3.00
2023-04-24T19:25:13.352Z,1.70
2023-04-24T19:27:40.217Z,1.77
2023-04-24T19:30:07.375Z,1.90
2023-04-24T19:32:33.803Z,2.05
2023-04-24T19:35:00.607Z,2.47
2023-04-24T19:37:27.145Z,2.20
2023-04-24T19:39:53.516Z,3.00
2023-04-24T19:42:28.430Z,1.80
2023-04-24T19:44:58.603Z,2.63
2023-04-24T19:47:25.644Z,2.95
2023-04-24T19:49:52.251Z,2.88
2023-04-24T19:52:19.461Z,1.77
2023-04-24T19:54:45.767Z,3.08
2023-04-24T19:57:12.135Z,2.28
2023-04-24T19:59:38.543Z,1.42
2023-04-24T20:02:04.856Z,2.50
2023-04-24T20:04:31.478Z,2.72
2023-04-24T20:06:58.002Z,1.98
2023-04-24T20:09:24.484Z,2.33
2023-04-24T20:11:52.288Z,1.15
2023-04-24T20:14:18.750Z,2.53
2023-04-24T20:16:45.147Z,3.03
2023-04-24T20:19:11.563Z,2.17
2023-04-24T20:21:37.956Z,2.65
2023-04-24T20:24:06.464Z,2.38
2023-04-24T20:26:33.029Z,1.85
2023-04-24T20:28:59.333Z,3.10
2023-04-24T20:31:26.891Z,3.20
2023-04-24T20:33:53.298Z,2.83
2023-04-24T20:36:19.644Z,3.92
2023-04-24T20:38:46.993Z,2.40
2023-04-24T20:41:13.429Z,3.45
2023-04-24T20:43:39.808Z,2.75
2023-04-24T20:46:06.926Z,2.03
2023-04-24T20:48:33.309Z,2.50
2023-04-24T20:50:59.669Z,2.95
2023-04-24T20:53:25.999Z,2.45
2023-04-24T20:55:52.428Z,2.72
2023-04-24T20:58:20.622Z,3.13
2023-04-24T21:00:47.103Z,1.25
2023-04-24T21:03:13.781Z,2.55
2023-04-24T21:05:40.178Z,3.38
2023-04-24T21:08:06.531Z,1.88
2023-04-24T21:10:32.964Z,1.85
2023-04-24T21:12:59.299Z,2.45
2023-04-24T21:15:25.720Z,1.23
2023-04-24T21:17:52.200Z,2.08
2023-04-24T21:20:18.682Z,1.55
2023-04-24T21:22:45.321Z,3.17
2023-04-24T21:25:11.650Z,1.67
2023-04-24T21:27:38.410Z,1.63
2023-04-24T21:30:06.704Z,1.60
2023-04-24T21:32:33.317Z,1.38
2023-04-24T21:34:59.888Z,2.15
2023-04-24T21:37:27.044Z,2.30
2023-04-24T21:39:53.373Z,1.60
2023-04-24T21:42:19.756Z,2.38
2023-04-24T21:44:46.077Z,2.17
2023-04-24T21:47:12.444Z,2.85
2023-04-24T21:49:38.767Z,2.40
2023-04-24T21:52:05.099Z,1.35
2023-04-24T21:54:31.420Z,2.60
2023-04-24T21:56:57.783Z,3.10
2023-04-24T21:59:24.210Z,2.28
2023-04-24T22:01:50.645Z,3.10
2023-04-24T22:04:17.270Z,3.00
2023-04-24T22:06:43.760Z,2.25
2023-04-24T22:09:10.799Z,1.70
2023-04-24T22:11:37.707Z,2.40
2023-04-24T22:14:04.110Z,1.90
2023-04-24T22:16:31.243Z,1.85
2023-04-24T22:18:57.775Z,1.80
2023-04-24T22:21:24.197Z,1.30
2023-04-24T22:23:51.374Z,1.23
2023-04-24T22:26:18.133Z,0.75
2023-04-24T22:28:45.608Z,0.75
2023-04-24T22:31:13.578Z,0.93
2023-04-24T22:33:39.957Z,1.00
2023-04-24T22:36:06.756Z,0.63
2023-04-24T22:38:33.099Z,1.27
2023-04-24T22:40:59.451Z,0.88
2023-04-24T22:43:26.711Z,1.08
2023-04-24T22:45:53.058Z,1.20
2023-04-24T22:48:19.371Z,0.80
2023-04-24T22:50:45.857Z,1.20
2023-04-24T22:53:12.186Z,0.80
2023-04-24T22:55:38.607Z,1.10
2023-04-24T22:58:06.142Z,1.50
2023-04-24T23:00:32.592Z,0.80
2023-04-24T23:02:59.072Z,1.50
2023-04-24T23:05:25.566Z,1.63
2023-04-24T23:07:52.117Z,0.77
2023-04-24T23:10:18.568Z,1.00
2023-04-24T23:12:44.944Z,0.85
2023-04-24T23:15:14.338Z,1.15
2023-04-24T23:17:41.307Z,0.90
2023-04-24T23:20:10.300Z,1.02
2023-04-24T23:22:36.642Z,0.80
2023-04-24T23:25:03.099Z,0.80
2023-04-24T23:27:29.573Z,0.90
2023-04-24T23:29:55.899Z,0.98
2023-04-24T23:32:22.382Z,0.70
2023-04-24T23:34:49.152Z,0.80
2023-04-24T23:37:17.312Z,1.00
2023-04-24T23:39:45.330Z,1.20
2023-04-24T23:42:11.670Z,0.95
2023-04-24T23:44:37.988Z,1.05
2023-04-24T23:47:04.369Z,0.90
2023-04-24T23:49:30.876Z,1.27
2023-04-24T23:51:57.270Z,1.23
2023-04-24T23:54:23.591Z,1.23
2023-04-24T23:56:49.905Z,1.35
2023-04-24T23:59:16.360Z,1.35
